sensor_id;sensor_type;location;lat;lon;timestamp;P1;durP1;ratioP1;P2;durP2;ratioP2
1993;SDS011;998;49.906;10.908;2023-03-03T00:00:07;16.93;;;9.00;;
1993;SDS011;998;49.906;10.908;2023-03-03T00:02:36;21.40;;;11.50;;
1993;SDS011;998;49.906;10.908;2023-03-03T00:05:03;19.83;;;11.83;;
1993;SDS011;998;49.906;10.908;2023-03-03T00:07:33;15.90;;;10.17;;
1993;SDS011;998;49.906;10.908;2023-03-03T00:10:00;23.10;;;10.47;;
1993;SDS011;998;49.906;10.908;2023-03-03T00:12:28;22.90;;;11.77;;
1993;SDS011;998;49.906;10.908;2023-03-03T00:14:56;19.97;;;10.97;;
1993;SDS011;998;49.906;10.908;2023-03-03T00:17:25;24.53;;;11.53;;
1993;SDS011;998;49.906;10.908;2023-03-03T00:19:54;17.80;;;10.40;;
1993;SDS011;998;49.906;10.908;2023-03-03T00:22:26;22.80;;;10.43;;
1993;SDS011;998;49.906;10.908;2023-03-03T00:24:59;20.73;;;11.90;;
1993;SDS011;998;49.906;10.908;2023-03-03T00:27:46;22.23;;;11.80;;
1993;SDS011;998;49.906;10.908;2023-03-03T00:30:16;28.93;;;12.33;;
1993;SDS011;998;49.906;10.908;2023-03-03T00:32:48;21.60;;;10.30;;
1993;SDS011;998;49.906;10.908;2023-03-03T00:35:20;25.30;;;11.70;;
1993;SDS011;998;49.906;10.908;2023-03-03T00:37:52;23.87;;;12.50;;
1993;SDS011;998;49.906;10.908;2023-03-03T00:40:23;29.30;;;13.50;;
1993;SDS011;998;49.906;10.908;2023-03-03T00:42:53;18.87;;;13.10;;
1993;SDS011;998;49.906;10.908;2023-03-03T00:45:23;24.40;;;12.00;;
1993;SDS011;998;49.906;10.908;2023-03-03T00:47:53;24.70;;;12.50;;
1993;SDS011;998;49.906;10.908;2023-03-03T00:50:24;24.23;;;14.20;;
1993;SDS011;998;49.906;10.908;2023-03-03T00:55:42;24.87;;;12.80;;
1993;SDS011;998;49.906;10.908;2023-03-03T00:58:10;26.43;;;14.37;;
1993;SDS011;998;49.906;10.908;2023-03-03T01:00:39;25.20;;;13.00;;
1993;SDS011;998;49.906;10.908;2023-03-03T01:03:08;29.60;;;14.90;;
1993;SDS011;998;49.906;10.908;2023-03-03T01:05:39;27.30;;;14.57;;
1993;SDS011;998;49.906;10.908;2023-03-03T01:08:07;32.50;;;14.00;;
1993;SDS011;998;49.906;10.908;2023-03-03T01:10:35;29.83;;;15.73;;
1993;SDS011;998;49.906;10.908;2023-03-03T01:13:07;28.73;;;14.57;;
1993;SDS011;998;49.906;10.908;2023-03-03T01:15:35;25.90;;;15.10;;
1993;SDS011;998;49.906;10.908;2023-03-03T01:18:04;29.10;;;13.87;;
1993;SDS011;998;49.906;10.908;2023-03-03T01:20:31;27.93;;;15.93;;
1993;SDS011;998;49.906;10.908;2023-03-03T01:22:59;28.97;;;16.90;;
1993;SDS011;998;49.906;10.908;2023-03-03T01:25:26;28.60;;;16.33;;
1993;SDS011;998;49.906;10.908;2023-03-03T01:27:54;29.90;;;15.63;;
1993;SDS011;998;49.906;10.908;2023-03-03T01:30:23;27.60;;;14.20;;
1993;SDS011;998;49.906;10.908;2023-03-03T01:32:51;29.90;;;15.10;;
1993;SDS011;998;49.906;10.908;2023-03-03T01:35:19;30.63;;;16.90;;
1993;SDS011;998;49.906;10.908;2023-03-03T01:37:47;32.10;;;16.30;;
1993;SDS011;998;49.906;10.908;2023-03-03T01:40:15;33.87;;;17.10;;
1993;SDS011;998;49.906;10.908;2023-03-03T01:42:44;31.57;;;16.90;;
1993;SDS011;998;49.906;10.908;2023-03-03T01:45:13;31.37;;;15.57;;
1993;SDS011;998;49.906;10.908;2023-03-03T01:47:48;27.77;;;16.30;;
1993;SDS011;998;49.906;10.908;2023-03-03T01:50:27;28.80;;;16.00;;
1993;SDS011;998;49.906;10.908;2023-03-03T01:53:10;34.50;;;17.07;;
1993;SDS011;998;49.906;10.908;2023-03-03T01:55:41;33.47;;;16.73;;
1993;SDS011;998;49.906;10.908;2023-03-03T01:58:10;28.90;;;14.87;;
1993;SDS011;998;49.906;10.908;2023-03-03T02:00:40;32.23;;;16.20;;
1993;SDS011;998;49.906;10.908;2023-03-03T02:03:12;34.60;;;18.83;;
1993;SDS011;998;49.906;10.908;2023-03-03T02:05:39;36.97;;;18.47;;
1993;SDS011;998;49.906;10.908;2023-03-03T02:08:08;32.70;;;17.57;;
1993;SDS011;998;49.906;10.908;2023-03-03T02:10:42;35.67;;;16.53;;
1993;SDS011;998;49.906;10.908;2023-03-03T02:13:11;30.30;;;16.60;;
1993;SDS011;998;49.906;10.908;2023-03-03T02:15:39;41.60;;;18.40;;
1993;SDS011;998;49.906;10.908;2023-03-03T02:18:08;28.17;;;15.67;;
1993;SDS011;998;49.906;10.908;2023-03-03T02:20:45;29.63;;;15.60;;
1993;SDS011;998;49.906;10.908;2023-03-03T02:23:24;30.80;;;15.57;;
1993;SDS011;998;49.906;10.908;2023-03-03T02:26:07;36.20;;;17.77;;
1993;SDS011;998;49.906;10.908;2023-03-03T02:28:37;32.80;;;17.20;;
1993;SDS011;998;49.906;10.908;2023-03-03T02:31:07;34.17;;;17.60;;
1993;SDS011;998;49.906;10.908;2023-03-03T02:33:37;38.63;;;18.70;;
1993;SDS011;998;49.906;10.908;2023-03-03T02:36:05;35.23;;;16.70;;
1993;SDS011;998;49.906;10.908;2023-03-03T02:38:35;34.73;;;17.43;;
1993;SDS011;998;49.906;10.908;2023-03-03T02:41:10;35.20;;;17.40;;
1993;SDS011;998;49.906;10.908;2023-03-03T02:43:44;30.03;;;16.90;;
1993;SDS011;998;49.906;10.908;2023-03-03T02:46:16;29.07;;;16.70;;
1993;SDS011;998;49.906;10.908;2023-03-03T02:48:44;30.33;;;15.20;;
1993;SDS011;998;49.906;10.908;2023-03-03T02:51:11;39.13;;;17.37;;
1993;SDS011;998;49.906;10.908;2023-03-03T02:53:38;33.37;;;17.23;;
1993;SDS011;998;49.906;10.908;2023-03-03T02:56:06;38.70;;;17.60;;
1993;SDS011;998;49.906;10.908;2023-03-03T02:58:36;37.77;;;16.30;;
1993;SDS011;998;49.906;10.908;2023-03-03T03:01:04;34.67;;;16.30;;
1993;SDS011;998;49.906;10.908;2023-03-03T03:03:31;29.13;;;15.93;;
1993;SDS011;998;49.906;10.908;2023-03-03T03:05:58;30.90;;;17.37;;
1993;SDS011;998;49.906;10.908;2023-03-03T03:08:25;33.87;;;16.53;;
1993;SDS011;998;49.906;10.908;2023-03-03T03:10:53;36.40;;;18.23;;
1993;SDS011;998;49.906;10.908;2023-03-03T03:13:23;34.67;;;18.20;;
1993;SDS011;998;49.906;10.908;2023-03-03T03:15:51;33.40;;;17.37;;
1993;SDS011;998;49.906;10.908;2023-03-03T03:18:18;36.67;;;17.00;;
1993;SDS011;998;49.906;10.908;2023-03-03T03:20:46;33.83;;;17.07;;
1993;SDS011;998;49.906;10.908;2023-03-03T03:23:13;33.80;;;14.37;;
1993;SDS011;998;49.906;10.908;2023-03-03T03:25:41;33.10;;;16.83;;
1993;SDS011;998;49.906;10.908;2023-03-03T03:28:10;37.13;;;19.03;;
1993;SDS011;998;49.906;10.908;2023-03-03T03:30:39;43.50;;;19.20;;
1993;SDS011;998;49.906;10.908;2023-03-03T03:33:08;36.17;;;19.30;;
1993;SDS011;998;49.906;10.908;2023-03-03T03:35:36;33.20;;;15.80;;
1993;SDS011;998;49.906;10.908;2023-03-03T03:38:04;33.03;;;17.53;;
1993;SDS011;998;49.906;10.908;2023-03-03T03:40:32;36.40;;;18.50;;
1993;SDS011;998;49.906;10.908;2023-03-03T03:42:59;36.40;;;17.23;;
1993;SDS011;998;49.906;10.908;2023-03-03T03:45:26;37.27;;;18.27;;
1993;SDS011;998;49.906;10.908;2023-03-03T03:47:55;34.60;;;19.47;;
1993;SDS011;998;49.906;10.908;2023-03-03T03:50:22;32.57;;;17.37;;
1993;SDS011;998;49.906;10.908;2023-03-03T03:52:50;33.53;;;16.67;;
1993;SDS011;998;49.906;10.908;2023-03-03T03:55:17;39.50;;;18.17;;
1993;SDS011;998;49.906;10.908;2023-03-03T03:57:46;34.77;;;17.50;;
1993;SDS011;998;49.906;10.908;2023-03-03T04:00:14;32.37;;;17.50;;
1993;SDS011;998;49.906;10.908;2023-03-03T04:02:41;30.90;;;14.87;;
1993;SDS011;998;49.906;10.908;2023-03-03T04:05:10;35.60;;;18.80;;
1993;SDS011;998;49.906;10.908;2023-03-03T04:07:37;33.77;;;17.27;;
1993;SDS011;998;49.906;10.908;2023-03-03T04:10:05;40.73;;;18.13;;
1993;SDS011;998;49.906;10.908;2023-03-03T04:12:33;39.50;;;18.20;;
1993;SDS011;998;49.906;10.908;2023-03-03T04:15:03;38.00;;;16.40;;
1993;SDS011;998;49.906;10.908;2023-03-03T04:17:32;35.17;;;18.07;;
1993;SDS011;998;49.906;10.908;2023-03-03T04:19:59;40.63;;;17.27;;
1993;SDS011;998;49.906;10.908;2023-03-03T04:22:29;35.50;;;18.37;;
1993;SDS011;998;49.906;10.908;2023-03-03T04:24:58;33.07;;;16.90;;
1993;SDS011;998;49.906;10.908;2023-03-03T04:27:29;35.80;;;18.03;;
1993;SDS011;998;49.906;10.908;2023-03-03T04:29:56;42.13;;;15.63;;
1993;SDS011;998;49.906;10.908;2023-03-03T04:32:24;27.17;;;14.27;;
1993;SDS011;998;49.906;10.908;2023-03-03T04:34:52;32.80;;;16.43;;
1993;SDS011;998;49.906;10.908;2023-03-03T04:37:19;33.70;;;17.13;;
1993;SDS011;998;49.906;10.908;2023-03-03T04:39:48;24.70;;;12.80;;
1993;SDS011;998;49.906;10.908;2023-03-03T04:42:16;34.70;;;16.60;;
1993;SDS011;998;49.906;10.908;2023-03-03T04:44:43;39.63;;;18.40;;
1993;SDS011;998;49.906;10.908;2023-03-03T04:47:11;29.80;;;15.73;;
1993;SDS011;998;49.906;10.908;2023-03-03T04:49:38;44.83;;;17.17;;
1993;SDS011;998;49.906;10.908;2023-03-03T04:52:05;31.00;;;17.93;;
1993;SDS011;998;49.906;10.908;2023-03-03T04:54:33;31.10;;;16.00;;
1993;SDS011;998;49.906;10.908;2023-03-03T04:57:01;32.80;;;17.83;;
1993;SDS011;998;49.906;10.908;2023-03-03T04:59:29;35.87;;;17.37;;
1993;SDS011;998;49.906;10.908;2023-03-03T05:01:56;34.13;;;16.43;;
1993;SDS011;998;49.906;10.908;2023-03-03T05:04:24;33.80;;;16.77;;
1993;SDS011;998;49.906;10.908;2023-03-03T05:06:51;32.80;;;14.90;;
1993;SDS011;998;49.906;10.908;2023-03-03T05:09:18;34.73;;;16.97;;
1993;SDS011;998;49.906;10.908;2023-03-03T05:11:46;30.67;;;15.63;;
1993;SDS011;998;49.906;10.908;2023-03-03T05:14:15;32.27;;;16.90;;
1993;SDS011;998;49.906;10.908;2023-03-03T05:16:42;32.37;;;15.40;;
1993;SDS011;998;49.906;10.908;2023-03-03T05:19:09;33.20;;;17.30;;
1993;SDS011;998;49.906;10.908;2023-03-03T05:21:37;33.03;;;17.90;;
1993;SDS011;998;49.906;10.908;2023-03-03T05:24:06;33.27;;;15.63;;
1993;SDS011;998;49.906;10.908;2023-03-03T05:26:34;36.90;;;19.60;;
1993;SDS011;998;49.906;10.908;2023-03-03T05:29:02;34.57;;;16.57;;
1993;SDS011;998;49.906;10.908;2023-03-03T05:31:31;32.70;;;16.40;;
1993;SDS011;998;49.906;10.908;2023-03-03T05:33:58;35.50;;;15.83;;
1993;SDS011;998;49.906;10.908;2023-03-03T05:36:26;41.53;;;19.17;;
1993;SDS011;998;49.906;10.908;2023-03-03T05:38:53;32.13;;;15.67;;
1993;SDS011;998;49.906;10.908;2023-03-03T05:41:20;30.03;;;16.67;;
1993;SDS011;998;49.906;10.908;2023-03-03T05:43:47;36.03;;;15.43;;
1993;SDS011;998;49.906;10.908;2023-03-03T05:46:15;28.93;;;16.00;;
1993;SDS011;998;49.906;10.908;2023-03-03T05:48:44;31.27;;;16.23;;
1993;SDS011;998;49.906;10.908;2023-03-03T05:51:11;31.70;;;15.90;;
1993;SDS011;998;49.906;10.908;2023-03-03T05:53:39;33.20;;;14.50;;
1993;SDS011;998;49.906;10.908;2023-03-03T05:56:06;32.20;;;15.23;;
1993;SDS011;998;49.906;10.908;2023-03-03T05:58:34;31.90;;;15.87;;
1993;SDS011;998;49.906;10.908;2023-03-03T06:01:01;26.90;;;16.47;;
1993;SDS011;998;49.906;10.908;2023-03-03T06:03:29;29.03;;;15.53;;
1993;SDS011;998;49.906;10.908;2023-03-03T06:05:59;37.87;;;16.03;;
1993;SDS011;998;49.906;10.908;2023-03-03T06:08:26;32.87;;;15.80;;
1993;SDS011;998;49.906;10.908;2023-03-03T06:10:54;31.30;;;13.50;;
1993;SDS011;998;49.906;10.908;2023-03-03T06:13:22;26.77;;;14.47;;
1993;SDS011;998;49.906;10.908;2023-03-03T06:15:49;32.80;;;15.83;;
1993;SDS011;998;49.906;10.908;2023-03-03T06:18:16;26.03;;;14.70;;
1993;SDS011;998;49.906;10.908;2023-03-03T06:20:44;28.17;;;15.07;;
1993;SDS011;998;49.906;10.908;2023-03-03T06:23:17;40.33;;;16.90;;
1993;SDS011;998;49.906;10.908;2023-03-03T06:25:44;32.73;;;15.97;;
1993;SDS011;998;49.906;10.908;2023-03-03T06:28:11;37.13;;;17.67;;
1993;SDS011;998;49.906;10.908;2023-03-03T06:30:39;32.40;;;17.00;;
1993;SDS011;998;49.906;10.908;2023-03-03T06:33:06;33.23;;;16.00;;
1993;SDS011;998;49.906;10.908;2023-03-03T06:35:34;33.30;;;16.07;;
1993;SDS011;998;49.906;10.908;2023-03-03T06:38:01;37.40;;;17.23;;
1993;SDS011;998;49.906;10.908;2023-03-03T06:40:30;36.20;;;16.60;;
1993;SDS011;998;49.906;10.908;2023-03-03T06:42:57;29.47;;;15.77;;
1993;SDS011;998;49.906;10.908;2023-03-03T06:45:26;27.40;;;14.33;;
1993;SDS011;998;49.906;10.908;2023-03-03T06:47:54;32.10;;;15.63;;
1993;SDS011;998;49.906;10.908;2023-03-03T06:50:21;44.43;;;18.53;;
1993;SDS011;998;49.906;10.908;2023-03-03T06:52:48;28.80;;;16.03;;
1993;SDS011;998;49.906;10.908;2023-03-03T06:55:21;32.53;;;16.23;;
1993;SDS011;998;49.906;10.908;2023-03-03T06:57:50;31.43;;;16.77;;
1993;SDS011;998;49.906;10.908;2023-03-03T07:00:22;27.67;;;15.47;;
1993;SDS011;998;49.906;10.908;2023-03-03T07:02:52;34.33;;;18.03;;
1993;SDS011;998;49.906;10.908;2023-03-03T07:05:25;34.40;;;15.80;;
1993;SDS011;998;49.906;10.908;2023-03-03T07:07:54;37.87;;;18.97;;
1993;SDS011;998;49.906;10.908;2023-03-03T07:10:22;34.97;;;17.00;;
1993;SDS011;998;49.906;10.908;2023-03-03T07:12:52;33.40;;;18.63;;
1993;SDS011;998;49.906;10.908;2023-03-03T07:15:23;32.43;;;16.57;;
1993;SDS011;998;49.906;10.908;2023-03-03T07:17:55;34.70;;;17.63;;
1993;SDS011;998;49.906;10.908;2023-03-03T07:20:25;33.77;;;15.63;;
1993;SDS011;998;49.906;10.908;2023-03-03T07:22:59;29.77;;;16.10;;
1993;SDS011;998;49.906;10.908;2023-03-03T07:25:29;26.50;;;14.90;;
1993;SDS011;998;49.906;10.908;2023-03-03T07:28:06;31.83;;;17.30;;
1993;SDS011;998;49.906;10.908;2023-03-03T07:30:42;32.17;;;14.97;;
1993;SDS011;998;49.906;10.908;2023-03-03T07:33:13;33.13;;;16.77;;
1993;SDS011;998;49.906;10.908;2023-03-03T07:35:48;28.30;;;14.77;;
1993;SDS011;998;49.906;10.908;2023-03-03T07:38:19;34.50;;;16.70;;
1993;SDS011;998;49.906;10.908;2023-03-03T07:40:50;34.17;;;15.60;;
1993;SDS011;998;49.906;10.908;2023-03-03T07:46:15;32.60;;;14.70;;
1993;SDS011;998;49.906;10.908;2023-03-03T07:48:52;28.57;;;14.83;;
1993;SDS011;998;49.906;10.908;2023-03-03T07:51:20;31.07;;;15.43;;
1993;SDS011;998;49.906;10.908;2023-03-03T07:53:52;28.30;;;15.10;;
1993;SDS011;998;49.906;10.908;2023-03-03T07:56:27;30.67;;;16.60;;
1993;SDS011;998;49.906;10.908;2023-03-03T07:59:01;30.23;;;17.60;;
1993;SDS011;998;49.906;10.908;2023-03-03T08:01:37;33.17;;;16.10;;
1993;SDS011;998;49.906;10.908;2023-03-03T08:04:13;28.03;;;15.37;;
1993;SDS011;998;49.906;10.908;2023-03-03T08:06:44;30.10;;;15.10;;
1993;SDS011;998;49.906;10.908;2023-03-03T08:09:29;25.10;;;14.57;;
1993;SDS011;998;49.906;10.908;2023-03-03T08:12:09;34.10;;;15.53;;
1993;SDS011;998;49.906;10.908;2023-03-03T08:14:55;25.17;;;14.80;;
1993;SDS011;998;49.906;10.908;2023-03-03T08:17:36;25.83;;;15.10;;
1993;SDS011;998;49.906;10.908;2023-03-03T08:20:10;32.33;;;16.47;;
1993;SDS011;998;49.906;10.908;2023-03-03T08:23:16;34.87;;;15.53;;
1993;SDS011;998;49.906;10.908;2023-03-03T08:25:45;28.33;;;16.17;;
1993;SDS011;998;49.906;10.908;2023-03-03T08:28:14;27.70;;;14.80;;
1993;SDS011;998;49.906;10.908;2023-03-03T08:30:43;22.20;;;13.20;;
1993;SDS011;998;49.906;10.908;2023-03-03T08:33:11;24.83;;;12.83;;
1993;SDS011;998;49.906;10.908;2023-03-03T08:35:39;29.07;;;14.63;;
1993;SDS011;998;49.906;10.908;2023-03-03T08:38:07;24.73;;;14.40;;
1993;SDS011;998;49.906;10.908;2023-03-03T08:40:36;28.23;;;13.13;;
1993;SDS011;998;49.906;10.908;2023-03-03T08:43:03;27.77;;;14.70;;
1993;SDS011;998;49.906;10.908;2023-03-03T08:45:31;30.60;;;13.77;;
1993;SDS011;998;49.906;10.908;2023-03-03T08:48:00;30.50;;;14.60;;
1993;SDS011;998;49.906;10.908;2023-03-03T08:50:28;27.47;;;14.30;;
1993;SDS011;998;49.906;10.908;2023-03-03T08:52:55;27.37;;;13.60;;
1993;SDS011;998;49.906;10.908;2023-03-03T08:55:23;29.03;;;13.13;;
1993;SDS011;998;49.906;10.908;2023-03-03T08:57:50;22.20;;;13.10;;
1993;SDS011;998;49.906;10.908;2023-03-03T09:00:18;24.03;;;13.80;;
1993;SDS011;998;49.906;10.908;2023-03-03T09:02:45;28.07;;;13.73;;
1993;SDS011;998;49.906;10.908;2023-03-03T09:05:15;25.00;;;14.23;;
1993;SDS011;998;49.906;10.908;2023-03-03T09:07:43;24.00;;;12.23;;
1993;SDS011;998;49.906;10.908;2023-03-03T09:10:12;20.83;;;13.60;;
1993;SDS011;998;49.906;10.908;2023-03-03T09:12:42;19.97;;;13.77;;
1993;SDS011;998;49.906;10.908;2023-03-03T09:15:18;24.27;;;14.33;;
1993;SDS011;998;49.906;10.908;2023-03-03T09:17:48;24.20;;;13.73;;
1993;SDS011;998;49.906;10.908;2023-03-03T09:26:10;19.37;;;11.00;;
1993;SDS011;998;49.906;10.908;2023-03-03T09:28:45;26.97;;;14.83;;
1993;SDS011;998;49.906;10.908;2023-03-03T09:31:18;24.03;;;12.50;;
1993;SDS011;998;49.906;10.908;2023-03-03T09:33:50;21.77;;;12.37;;
1993;SDS011;998;49.906;10.908;2023-03-03T09:36:23;22.20;;;13.03;;
1993;SDS011;998;49.906;10.908;2023-03-03T09:38:52;22.13;;;13.50;;
1993;SDS011;998;49.906;10.908;2023-03-03T09:44:51;19.23;;;11.07;;
1993;SDS011;998;49.906;10.908;2023-03-03T09:47:45;24.47;;;13.47;;
1993;SDS011;998;49.906;10.908;2023-03-03T09:50:28;27.63;;;12.57;;
1993;SDS011;998;49.906;10.908;2023-03-03T09:53:08;23.20;;;12.20;;
1993;SDS011;998;49.906;10.908;2023-03-03T09:55:47;21.13;;;12.07;;
1993;SDS011;998;49.906;10.908;2023-03-03T09:58:26;22.80;;;12.73;;
1993;SDS011;998;49.906;10.908;2023-03-03T10:01:18;22.97;;;12.13;;
1993;SDS011;998;49.906;10.908;2023-03-03T10:06:44;26.43;;;12.90;;
1993;SDS011;998;49.906;10.908;2023-03-03T10:12:13;23.83;;;13.17;;
1993;SDS011;998;49.906;10.908;2023-03-03T10:14:56;22.10;;;12.83;;
1993;SDS011;998;49.906;10.908;2023-03-03T10:17:47;30.37;;;12.60;;
1993;SDS011;998;49.906;10.908;2023-03-03T10:20:35;26.83;;;12.60;;
1993;SDS011;998;49.906;10.908;2023-03-03T10:23:23;21.07;;;11.27;;
1993;SDS011;998;49.906;10.908;2023-03-03T10:26:12;21.90;;;11.67;;
1993;SDS011;998;49.906;10.908;2023-03-03T10:28:59;19.27;;;10.90;;
1993;SDS011;998;49.906;10.908;2023-03-03T10:31:36;18.43;;;10.33;;
1993;SDS011;998;49.906;10.908;2023-03-03T10:34:19;23.57;;;13.07;;
1993;SDS011;998;49.906;10.908;2023-03-03T10:37:02;23.30;;;11.50;;
1993;SDS011;998;49.906;10.908;2023-03-03T10:39:39;23.70;;;12.30;;
1993;SDS011;998;49.906;10.908;2023-03-03T10:42:30;23.77;;;12.23;;
1993;SDS011;998;49.906;10.908;2023-03-03T10:45:17;25.70;;;12.53;;
1993;SDS011;998;49.906;10.908;2023-03-03T10:48:09;22.53;;;12.10;;
1993;SDS011;998;49.906;10.908;2023-03-03T10:50:56;17.30;;;9.77;;
1993;SDS011;998;49.906;10.908;2023-03-03T10:53:31;20.73;;;12.43;;
1993;SDS011;998;49.906;10.908;2023-03-03T10:56:12;17.00;;;11.50;;
1993;SDS011;998;49.906;10.908;2023-03-03T10:58:58;23.30;;;11.37;;
1993;SDS011;998;49.906;10.908;2023-03-03T11:01:39;16.80;;;9.30;;
1993;SDS011;998;49.906;10.908;2023-03-03T11:07:14;16.40;;;9.73;;
1993;SDS011;998;49.906;10.908;2023-03-03T11:12:49;20.03;;;11.70;;
1993;SDS011;998;49.906;10.908;2023-03-03T11:18:20;17.93;;;10.50;;
1993;SDS011;998;49.906;10.908;2023-03-03T11:21:10;17.87;;;10.23;;
1993;SDS011;998;49.906;10.908;2023-03-03T11:23:48;20.13;;;12.00;;
1993;SDS011;998;49.906;10.908;2023-03-03T11:26:31;16.60;;;9.40;;
1993;SDS011;998;49.906;10.908;2023-03-03T11:29:20;16.17;;;11.00;;
1993;SDS011;998;49.906;10.908;2023-03-03T11:31:57;17.10;;;10.47;;
1993;SDS011;998;49.906;10.908;2023-03-03T11:34:43;18.40;;;10.63;;
1993;SDS011;998;49.906;10.908;2023-03-03T11:37:20;17.37;;;9.67;;
1993;SDS011;998;49.906;10.908;2023-03-03T11:39:53;15.53;;;9.97;;
1993;SDS011;998;49.906;10.908;2023-03-03T11:42:24;15.67;;;9.97;;
1993;SDS011;998;49.906;10.908;2023-03-03T11:45:01;16.10;;;10.13;;
1993;SDS011;998;49.906;10.908;2023-03-03T11:47:34;13.00;;;8.30;;
1993;SDS011;998;49.906;10.908;2023-03-03T11:50:10;15.90;;;10.17;;
1993;SDS011;998;49.906;10.908;2023-03-03T11:52:46;15.87;;;10.77;;
1993;SDS011;998;49.906;10.908;2023-03-03T11:55:18;15.80;;;10.67;;
1993;SDS011;998;49.906;10.908;2023-03-03T11:57:51;15.77;;;11.10;;
1993;SDS011;998;49.906;10.908;2023-03-03T12:00:26;13.93;;;9.67;;
1993;SDS011;998;49.906;10.908;2023-03-03T12:03:13;15.60;;;10.30;;
1993;SDS011;998;49.906;10.908;2023-03-03T12:05:49;15.40;;;11.87;;
1993;SDS011;998;49.906;10.908;2023-03-03T12:08:28;15.77;;;10.27;;
1993;SDS011;998;49.906;10.908;2023-03-03T12:11:06;15.20;;;10.03;;
1993;SDS011;998;49.906;10.908;2023-03-03T12:13:40;14.03;;;9.40;;
1993;SDS011;998;49.906;10.908;2023-03-03T12:16:17;13.03;;;9.80;;
1993;SDS011;998;49.906;10.908;2023-03-03T12:18:57;17.00;;;10.67;;
1993;SDS011;998;49.906;10.908;2023-03-03T12:21:37;18.23;;;11.87;;
1993;SDS011;998;49.906;10.908;2023-03-03T12:24:18;15.40;;;9.87;;
1993;SDS011;998;49.906;10.908;2023-03-03T12:27:01;13.87;;;10.00;;
1993;SDS011;998;49.906;10.908;2023-03-03T12:29:40;13.20;;;9.20;;
1993;SDS011;998;49.906;10.908;2023-03-03T12:32:18;13.60;;;9.23;;
1993;SDS011;998;49.906;10.908;2023-03-03T12:35:00;13.87;;;8.90;;
1993;SDS011;998;49.906;10.908;2023-03-03T12:37:45;15.97;;;11.27;;
1993;SDS011;998;49.906;10.908;2023-03-03T12:40:18;14.93;;;9.80;;
1993;SDS011;998;49.906;10.908;2023-03-03T12:42:51;13.97;;;10.23;;
1993;SDS011;998;49.906;10.908;2023-03-03T12:45:35;13.00;;;9.53;;
1993;SDS011;998;49.906;10.908;2023-03-03T12:48:13;13.43;;;8.40;;
1993;SDS011;998;49.906;10.908;2023-03-03T12:50:48;12.97;;;8.60;;
1993;SDS011;998;49.906;10.908;2023-03-03T12:53:29;13.27;;;8.87;;
1993;SDS011;998;49.906;10.908;2023-03-03T12:56:06;11.30;;;8.10;;
1993;SDS011;998;49.906;10.908;2023-03-03T12:58:37;14.40;;;9.47;;
1993;SDS011;998;49.906;10.908;2023-03-03T13:01:16;10.77;;;7.80;;
1993;SDS011;998;49.906;10.908;2023-03-03T13:03:57;15.63;;;8.93;;
1993;SDS011;998;49.906;10.908;2023-03-03T13:06:33;12.00;;;8.67;;
1993;SDS011;998;49.906;10.908;2023-03-03T13:09:16;11.40;;;9.13;;
1993;SDS011;998;49.906;10.908;2023-03-03T13:11:54;10.10;;;7.37;;
1993;SDS011;998;49.906;10.908;2023-03-03T13:14:34;12.80;;;8.33;;
1993;SDS011;998;49.906;10.908;2023-03-03T13:17:17;11.93;;;7.90;;
1993;SDS011;998;49.906;10.908;2023-03-03T13:19:51;8.80;;;7.07;;
1993;SDS011;998;49.906;10.908;2023-03-03T13:22:34;11.37;;;8.90;;
1993;SDS011;998;49.906;10.908;2023-03-03T13:25:15;11.23;;;7.73;;
1993;SDS011;998;49.906;10.908;2023-03-03T13:27:58;12.63;;;7.77;;
1993;SDS011;998;49.906;10.908;2023-03-03T13:30:29;12.13;;;7.93;;
1993;SDS011;998;49.906;10.908;2023-03-03T13:33:01;12.60;;;7.93;;
1993;SDS011;998;49.906;10.908;2023-03-03T13:35:37;11.37;;;7.43;;
1993;SDS011;998;49.906;10.908;2023-03-03T13:38:12;11.67;;;8.10;;
1993;SDS011;998;49.906;10.908;2023-03-03T13:40:44;11.40;;;8.33;;
1993;SDS011;998;49.906;10.908;2023-03-03T13:43:17;11.53;;;7.77;;
1993;SDS011;998;49.906;10.908;2023-03-03T13:45:56;12.60;;;7.60;;
1993;SDS011;998;49.906;10.908;2023-03-03T13:48:41;8.37;;;5.60;;
1993;SDS011;998;49.906;10.908;2023-03-03T13:51:30;9.70;;;6.20;;
1993;SDS011;998;49.906;10.908;2023-03-03T13:54:10;10.30;;;6.70;;
1993;SDS011;998;49.906;10.908;2023-03-03T13:56:50;9.57;;;5.70;;
1993;SDS011;998;49.906;10.908;2023-03-03T13:59:29;7.47;;;5.77;;
1993;SDS011;998;49.906;10.908;2023-03-03T14:02:07;8.13;;;5.87;;
1993;SDS011;998;49.906;10.908;2023-03-03T14:04:53;9.23;;;6.17;;
1993;SDS011;998;49.906;10.908;2023-03-03T14:07:24;9.23;;;5.80;;
1993;SDS011;998;49.906;10.908;2023-03-03T14:10:01;10.97;;;6.53;;
1993;SDS011;998;49.906;10.908;2023-03-03T14:12:46;9.37;;;6.77;;
1993;SDS011;998;49.906;10.908;2023-03-03T14:15:23;13.80;;;6.00;;
1993;SDS011;998;49.906;10.908;2023-03-03T14:18:02;10.07;;;5.20;;
1993;SDS011;998;49.906;10.908;2023-03-03T14:20:50;9.23;;;6.17;;
1993;SDS011;998;49.906;10.908;2023-03-03T14:23:19;8.80;;;5.83;;
1993;SDS011;998;49.906;10.908;2023-03-03T14:25:52;8.10;;;5.40;;
1993;SDS011;998;49.906;10.908;2023-03-03T14:28:26;10.03;;;6.20;;
1993;SDS011;998;49.906;10.908;2023-03-03T14:30:55;10.13;;;5.87;;
1993;SDS011;998;49.906;10.908;2023-03-03T14:33:30;11.07;;;6.87;;
1993;SDS011;998;49.906;10.908;2023-03-03T14:36:01;8.50;;;3.80;;
1993;SDS011;998;49.906;10.908;2023-03-03T14:38:38;7.33;;;4.77;;
1993;SDS011;998;49.906;10.908;2023-03-03T14:41:16;7.20;;;4.00;;
1993;SDS011;998;49.906;10.908;2023-03-03T14:43:59;5.53;;;3.60;;
1993;SDS011;998;49.906;10.908;2023-03-03T14:46:31;5.97;;;3.70;;
1993;SDS011;998;49.906;10.908;2023-03-03T14:49:01;5.03;;;3.00;;
1993;SDS011;998;49.906;10.908;2023-03-03T14:51:33;5.50;;;3.10;;
1993;SDS011;998;49.906;10.908;2023-03-03T14:54:07;5.50;;;3.10;;
1993;SDS011;998;49.906;10.908;2023-03-03T14:56:53;4.87;;;2.70;;
1993;SDS011;998;49.906;10.908;2023-03-03T14:59:24;6.57;;;4.10;;
1993;SDS011;998;49.906;10.908;2023-03-03T15:01:56;8.47;;;3.33;;
1993;SDS011;998;49.906;10.908;2023-03-03T15:04:36;5.27;;;2.87;;
1993;SDS011;998;49.906;10.908;2023-03-03T15:07:14;6.30;;;3.20;;
1993;SDS011;998;49.906;10.908;2023-03-03T15:09:57;4.37;;;2.97;;
1993;SDS011;998;49.906;10.908;2023-03-03T15:12:26;7.63;;;3.90;;
1993;SDS011;998;49.906;10.908;2023-03-03T15:15:07;6.47;;;4.17;;
1993;SDS011;998;49.906;10.908;2023-03-03T15:17:52;4.70;;;3.03;;
1993;SDS011;998;49.906;10.908;2023-03-03T15:23:17;6.97;;;3.53;;
1993;SDS011;998;49.906;10.908;2023-03-03T15:26:01;10.00;;;4.37;;
1993;SDS011;998;49.906;10.908;2023-03-03T15:28:37;7.00;;;4.20;;
1993;SDS011;998;49.906;10.908;2023-03-03T15:31:15;5.73;;;3.50;;
1993;SDS011;998;49.906;10.908;2023-03-03T15:33:54;9.33;;;3.43;;
1993;SDS011;998;49.906;10.908;2023-03-03T15:36:31;5.13;;;3.23;;
1993;SDS011;998;49.906;10.908;2023-03-03T15:39:11;6.77;;;4.07;;
1993;SDS011;998;49.906;10.908;2023-03-03T15:41:46;8.50;;;4.20;;
1993;SDS011;998;49.906;10.908;2023-03-03T15:44:25;8.13;;;4.57;;
1993;SDS011;998;49.906;10.908;2023-03-03T15:47:16;7.17;;;3.80;;
1993;SDS011;998;49.906;10.908;2023-03-03T15:50:07;8.93;;;4.83;;
1993;SDS011;998;49.906;10.908;2023-03-03T15:52:55;8.37;;;4.50;;
1993;SDS011;998;49.906;10.908;2023-03-03T15:58:27;7.10;;;3.70;;
1993;SDS011;998;49.906;10.908;2023-03-03T16:01:14;7.37;;;4.13;;
1993;SDS011;998;49.906;10.908;2023-03-03T16:03:52;8.20;;;5.13;;